Lowland, North Carolina
Current Conditions -  °F | °C
As of 12:56 PM on Tuesday 21 Oct 2014 (Local Time) from KNBT Reporting Station
Clear Clear  
Wind Chill: 75°   Ceiling: Unl
Heat Index: 75°   Visibility: 8mi
Dew Point: 52°   Wind: 10mph
Humidity: 44%   Direction: 280°W
Pressure: 29.88"   Gusts: NA
Location:  35.3°N, 76.56°W
Report Text: KNBT 211656Z AUTO 28009KT 8SM CLR 24/11 A2988 RMK AO2 SLP121 T02390111 PNO
Loading
Personal Weather Stations






























Interactive Weather Map
Tropical Storm Tracking
New forecast layout! Learn more

10-Day Weather Forecast

Advertisements
Track Severe Weather on mobile